Urb El Coqui, Puerto Rico
Current Conditions -  °F | °C
As of 8:56 PM on Friday 24 Oct 2014 (Local Time) from TJSJ Reporting Station
Clear Clear  
Wind Chill: 84°   Ceiling: Unl
Heat Index: 93°   Visibility: 10mi
Dew Point: 76°   Wind: 0mph
Humidity: 76%   Direction: NA
Pressure: 29.91"   Gusts: NA
Location:  18.1808°N, 66.1122°W
Report Text: TJSJ 250056Z 00000KT 10SM CLR 29/24 A2991 RMK AO2 SLP127 T02890244
Loading
Personal Weather Stations






























Interactive Weather Map
Tropical Storm Tracking
New forecast layout! Learn more

10-Day Weather Forecast

Advertisements
Track Severe Weather on mobile